Time;durP1;ratioP1;P1;durP2;ratioP2;P2;SDS_P1;SDS_P2;PMS_P1;PMS_P2;Temp;Humidity;BMP_temperature;BMP_pressure;BME280_temperature;BME280_humidity;BME280_pressure;Samples;Min_cycle;Max_cycle;Signal;HPM_P1;HPM_P2
2021/06/21 00:02:01;;;;;;;1.63;1.25;;;18.10;81.30;;;;;;5094488;28;20034;-80
2021/06/21 00:04:26;;;;;;;1.00;0.90;;;18.00;81.50;;;;;;5093988;28;20030;-80
2021/06/21 00:06:52;;;;;;;1.20;1.10;;;17.90;81.60;;;;;;5094324;28;20467;-79
2021/06/21 00:09:17;;;;;;;1.35;1.25;;;17.90;81.70;;;;;;5094490;28;20067;-80
2021/06/21 00:11:43;;;;;;;1.67;1.58;;;17.80;81.80;;;;;;5076136;28;20111;-81
2021/06/21 00:14:08;;;;;;;1.60;1.50;;;17.70;81.90;;;;;;5094135;28;20054;-80
2021/06/21 00:16:34;;;;;;;1.42;1.33;;;17.60;82.00;;;;;;5094243;28;20028;-79
2021/06/21 00:19:00;;;;;;;1.88;1.50;;;17.50;82.10;;;;;;5075468;28;20385;-80
2021/06/21 00:21:26;;;;;;;3.30;1.73;;;17.40;82.10;;;;;;5094218;28;20111;-82
2021/06/21 00:23:51;;;;;;;1.83;1.73;;;17.40;82.80;;;;;;5094128;28;20023;-81
2021/06/21 00:26:17;;;;;;;1.60;1.50;;;17.30;82.30;;;;;;5094061;28;20425;-80
2021/06/21 00:28:43;;;;;;;2.13;1.90;;;17.30;82.40;;;;;;5094045;28;20031;-81
2021/06/21 00:31:08;;;;;;;1.92;1.67;;;17.20;82.30;;;;;;5075942;28;20016;-81
2021/06/21 00:33:34;;;;;;;1.50;1.40;;;17.20;82.30;;;;;;5075071;28;20139;-80
2021/06/21 00:35:59;;;;;;;1.40;1.30;;;17.20;82.20;;;;;;5094018;28;20073;-81
2021/06/21 00:38:25;;;;;;;1.50;1.40;;;17.30;82.10;;;;;;5093637;28;20476;-80
2021/06/21 00:40:50;;;;;;;1.25;1.20;;;17.30;81.80;;;;;;5093748;28;20020;-81
2021/06/21 00:43:16;;;;;;;1.35;1.25;;;17.40;81.70;;;;;;5093948;28;20023;-81
2021/06/21 00:45:41;;;;;;;1.70;1.30;;;17.40;81.50;;;;;;5093418;28;20089;-80
2021/06/21 00:48:07;;;;;;;2.17;1.30;;;17.40;81.40;;;;;;5075106;28;20384;-80
2021/06/21 00:50:33;;;;;;;1.50;1.35;;;17.40;81.40;;;;;;5093623;28;20024;-79
2021/06/21 00:53:01;;;;;;;1.35;1.25;;;17.40;81.40;;;;;;5093677;28;20024;-79
2021/06/21 00:55:28;;;;;;;1.20;1.10;;;17.40;81.30;;;;;;5075389;28;20036;-80
2021/06/21 00:57:55;;;;;;;2.00;1.50;;;17.40;81.30;;;;;;5075500;28;20065;-79
2021/06/21 01:00:24;;;;;;;1.55;1.30;;;17.30;81.40;;;;;;5075459;28;20016;-78
2021/06/21 01:02:50;;;;;;;1.60;1.45;;;17.10;81.80;;;;;;5092958;28;20020;-78
2021/06/21 01:05:19;;;;;;;2.08;1.42;;;16.90;82.40;;;;;;5075396;28;20039;-77
2021/06/21 01:07:44;;;;;;;1.67;1.58;;;16.70;82.90;;;;;;5093429;28;20020;-78
2021/06/21 01:10:11;;;;;;;2.13;1.73;;;16.60;83.10;;;;;;5075271;28;20371;-77
2021/06/21 01:12:46;;;;;;;2.65;2.15;;;16.50;83.40;;;;;;5093343;28;20473;-76
2021/06/21 01:15:32;;;;;;;1.95;1.70;;;16.40;83.60;;;;;;5093256;28;20040;-77
2021/06/21 01:18:02;;;;;;;2.72;2.30;;;16.20;83.80;;;;;;5074316;28;20491;-77
2021/06/21 01:21:05;;;;;;;2.70;2.08;;;16.10;84.10;;;;;;5075076;28;20393;-79
2021/06/21 01:23:56;;;;;;;3.25;2.38;;;16.00;84.20;;;;;;5093238;28;20028;-77
2021/06/21 01:26:27;;;;;;;2.90;1.88;;;15.90;84.40;;;;;;5093355;28;20027;-77
2021/06/21 01:29:26;;;;;;;3.13;2.00;;;15.80;84.50;;;;;;5093173;28;20104;-77
2021/06/21 01:32:02;;;;;;;2.83;2.10;;;15.80;84.50;;;;;;5092886;28;20329;-78
2021/06/21 01:34:29;;;;;;;2.10;1.80;;;15.80;84.40;;;;;;5074965;28;20123;-77
2021/06/21 01:37:00;;;;;;;1.80;1.70;;;15.80;84.40;;;;;;5092865;28;20131;-78
2021/06/21 01:39:28;;;;;;;1.55;1.45;;;15.90;84.30;;;;;;5093390;28;20020;-78
2021/06/21 01:42:01;;;;;;;2.28;1.70;;;15.90;84.20;;;;;;5075092;28;20044;-78
2021/06/21 01:44:30;;;;;;;1.80;1.52;;;15.90;84.30;;;;;;5092971;28;20043;-78
2021/06/21 01:46:57;;;;;;;;;;;15.90;84.30;;;;;;5093039;28;20040;-78
2021/06/21 01:49:24;;;;;;;1.88;1.42;;;15.80;84.00;;;;;;5093187;28;19904;-77
2021/06/21 01:51:56;;;;;;;0.95;0.90;;;15.80;84.50;;;;;;5093018;28;20028;-78
2021/06/21 01:54:26;;;;;;;1.30;1.20;;;15.80;84.50;;;;;;5092941;28;20036;-78
2021/06/21 01:56:53;;;;;;;1.30;1.20;;;15.80;84.50;;;;;;5093595;28;20028;-79
2021/06/21 01:59:19;;;;;;;1.20;1.10;;;15.90;84.50;;;;;;5078347;28;20073;-78
2021/06/21 02:01:45;;;;;;;1.63;1.40;;;15.90;84.50;;;;;;5096953;28;20027;-78
2021/06/21 02:04:12;;;;;;;2.47;1.30;;;15.80;84.60;;;;;;5096620;28;20089;-78
2021/06/21 02:06:39;;;;;;;1.38;1.27;;;15.80;84.80;;;;;;5078427;28;20047;-78
2021/06/21 02:09:08;;;;;;;1.63;1.50;;;15.70;84.80;;;;;;5096794;28;20024;-78
2021/06/21 02:11:34;;;;;;;1.60;1.20;;;15.70;85.00;;;;;;5078427;28;20103;-78
2021/06/21 02:14:03;;;;;;;1.48;1.27;;;15.60;85.10;;;;;;5077731;28;20107;-77
2021/06/21 02:16:29;;;;;;;1.58;1.48;;;15.60;85.30;;;;;;5078462;28;20024;-79
2021/06/21 02:18:54;;;;;;;1.50;1.38;;;15.60;85.40;;;;;;5078129;28;20051;-78
2021/06/21 02:21:25;;;;;;;1.67;1.27;;;15.50;85.50;;;;;;5078333;28;20031;-79
2021/06/21 02:23:51;;;;;;;1.35;1.20;;;15.50;85.60;;;;;;5078086;28;20436;-77
2021/06/21 02:26:23;;;;;;;1.27;1.17;;;15.40;85.80;;;;;;5078070;28;20020;-77
2021/06/21 02:28:51;;;;;;;1.15;1.05;;;15.40;86.00;;;;;;5096042;28;20024;-78
2021/06/21 02:31:17;;;;;;;1.30;1.20;;;15.30;86.10;;;;;;5096213;28;20023;-79
2021/06/21 02:33:43;;;;;;;1.98;1.80;;;15.30;86.10;;;;;;5096410;28;20020;-78
2021/06/21 02:36:09;;;;;;;1.63;1.50;;;15.20;86.20;;;;;;5095971;28;20028;-77
2021/06/21 02:38:34;;;;;;;2.55;1.80;;;15.10;86.40;;;;;;5078011;28;20012;-77
2021/06/21 02:41:00;;;;;;;2.70;2.03;;;15.10;86.60;;;;;;5096117;28;20024;-78
2021/06/21 02:43:25;;;;;;;1.58;1.48;;;15.10;86.70;;;;;;5077472;28;20012;-77
2021/06/21 02:45:51;;;;;;;2.67;1.70;;;15.10;86.80;;;;;;5077764;28;20487;-77
2021/06/21 02:48:17;;;;;;;1.95;1.30;;;15.00;86.80;;;;;;5077782;28;20035;-76
2021/06/21 02:50:45;;;;;;;1.52;1.40;;;15.00;86.90;;;;;;5077568;28;20078;-76
2021/06/21 02:53:40;;;;;;;1.48;0.98;;;15.00;87.00;;;;;;5077611;28;20329;-77
2021/06/21 02:56:43;;;;;;;2.42;1.73;;;14.90;86.90;;;;;;5077490;28;20123;-75
2021/06/21 02:59:13;;;;;;;3.25;1.70;;;14.80;87.10;;;;;;5095183;28;20099;-78
2021/06/21 03:01:44;;;;;;;3.67;1.20;;;14.70;87.20;;;;;;5095762;28;20048;-75
2021/06/21 03:04:12;;;;;;;3.85;1.70;;;14.70;87.50;;;;;;5077291;28;20118;-77
2021/06/21 03:06:39;;;;;;;2.58;1.95;;;14.70;87.60;;;;;;5095685;28;20012;-76
2021/06/21 03:09:05;;;;;;;1.50;1.40;;;14.60;87.60;;;;;;5095459;28;20028;-76
2021/06/21 03:11:32;;;;;;;1.80;1.20;;;14.60;87.80;;;;;;5095516;28;20377;-76
2021/06/21 03:13:58;;;;;;;1.30;1.20;;;14.60;87.80;;;;;;5094908;28;20032;-76
2021/06/21 03:16:28;;;;;;;1.40;1.25;;;14.50;87.80;;;;;;5095345;28;20056;-76
2021/06/21 03:18:55;;;;;;;;;;;14.60;87.80;;;;;;5095822;28;20427;-78
2021/06/21 03:21:21;;;;;;;2.35;1.67;;;14.50;87.50;;;;;;5077209;28;19939;-77
2021/06/21 03:23:56;;;;;;;3.28;1.73;;;14.40;88.00;;;;;;5077118;28;20023;-77
2021/06/21 03:26:30;;;;;;;2.22;1.58;;;14.40;88.10;;;;;;5094612;28;20028;-75
2021/06/21 03:28:56;;;;;;;1.65;1.55;;;14.30;88.20;;;;;;5095187;28;20461;-78
2021/06/21 03:31:24;;;;;;;2.55;1.60;;;14.30;88.50;;;;;;5094952;28;20066;-77
2021/06/21 03:33:50;;;;;;;1.35;1.25;;;14.30;88.60;;;;;;5095031;28;20422;-78
2021/06/21 03:36:16;;;;;;;3.42;1.88;;;14.30;88.60;;;;;;5094650;28;20141;-77
2021/06/21 03:38:43;;;;;;;2.65;1.83;;;14.20;89.20;;;;;;5076874;28;20050;-79
2021/06/21 03:41:08;;;;;;;2.22;1.58;;;14.30;88.60;;;;;;5076238;28;20023;-77
2021/06/21 03:43:35;;;;;;;1.25;1.15;;;14.30;88.80;;;;;;5076653;28;20016;-78
2021/06/21 03:46:04;;;;;;;1.50;1.15;;;14.20;88.90;;;;;;5094876;28;20028;-79
2021/06/21 03:48:29;;;;;;;1.20;1.10;;;14.20;89.10;;;;;;5076638;28;20028;-84
2021/06/21 03:50:56;;;;;;;1.63;1.10;;;14.20;89.20;;;;;;5094591;28;20024;-79
2021/06/21 03:53:25;;;;;;;0.80;0.80;;;14.20;89.30;;;;;;5094762;28;20157;-79
2021/06/21 03:55:51;;;;;;;1.88;1.50;;;14.20;89.50;;;;;;5094503;28;20032;-80
2021/06/21 03:58:17;;;;;;;1.75;1.30;;;14.20;89.70;;;;;;5076502;28;20024;-79
2021/06/21 04:00:44;;;;;;;1.67;1.23;;;14.10;90.00;;;;;;5094804;28;20177;-79
2021/06/21 04:03:10;;;;;;;1.00;0.90;;;14.10;90.20;;;;;;5094585;28;20473;-80
2021/06/21 04:05:37;;;;;;;1.92;1.40;;;14.10;90.30;;;;;;5094457;28;20031;-83
2021/06/21 04:08:09;;;;;;;1.60;1.30;;;14.10;90.50;;;;;;5094597;28;20027;-81
2021/06/21 04:10:36;;;;;;;1.10;1.00;;;14.10;90.70;;;;;;5076068;28;20413;-81
2021/06/21 04:13:03;;;;;;;1.05;0.80;;;14.10;90.90;;;;;;5094328;28;20016;-78
2021/06/21 04:15:30;;;;;;;1.05;0.90;;;14.10;91.00;;;;;;5076270;28;20035;-81
2021/06/21 04:18:00;;;;;;;0.65;0.60;;;14.10;91.20;;;;;;5094019;28;20020;-80
2021/06/21 04:20:27;;;;;;;0.70;0.70;;;14.00;91.40;;;;;;5093330;28;20445;-79
2021/06/21 04:22:53;;;;;;;1.15;0.90;;;14.00;91.50;;;;;;5094151;28;20024;-78
2021/06/21 04:25:20;;;;;;;0.82;0.77;;;14.00;91.60;;;;;;5075502;28;20047;-79
2021/06/21 04:27:45;;;;;;;1.13;1.13;;;14.00;91.90;;;;;;5094110;28;20529;-81
2021/06/21 04:30:14;;;;;;;0.85;0.85;;;14.00;92.10;;;;;;5093839;28;20028;-78
2021/06/21 04:32:39;;;;;;;0.63;0.60;;;14.00;92.30;;;;;;5075697;28;20024;-79
2021/06/21 04:35:08;;;;;;;0.30;0.30;;;14.00;92.40;;;;;;5075740;28;20036;-78
2021/06/21 04:37:34;;;;;;;0.50;0.50;;;14.10;92.50;;;;;;5093516;28;20048;-78
2021/06/21 04:40:02;;;;;;;0.70;0.70;;;14.10;92.70;;;;;;5075242;28;20035;-79
2021/06/21 04:42:27;;;;;;;0.50;0.50;;;14.10;92.80;;;;;;5075584;28;20380;-79
2021/06/21 04:44:53;;;;;;;0.88;0.80;;;14.10;92.90;;;;;;5075490;28;20016;-79
2021/06/21 04:47:23;;;;;;;1.15;0.75;;;14.20;93.10;;;;;;5093849;28;20028;-78
2021/06/21 04:49:49;;;;;;;1.10;0.90;;;14.10;93.20;;;;;;5075308;28;20016;-78
2021/06/21 04:52:15;;;;;;;1.70;0.82;;;14.20;93.30;;;;;;5075751;28;20031;-79
2021/06/21 04:54:41;;;;;;;1.10;0.90;;;14.10;93.40;;;;;;5093039;28;20385;-78
2021/06/21 04:57:07;;;;;;;0.95;0.85;;;14.20;93.50;;;;;;5075359;28;20020;-80
2021/06/21 04:59:32;;;;;;;2.25;1.63;;;14.20;93.60;;;;;;5093596;28;20024;-79
2021/06/21 05:01:58;;;;;;;2.75;1.60;;;14.20;93.70;;;;;;5093323;28;20026;-81
2021/06/21 05:04:23;;;;;;;1.23;1.05;;;14.10;93.80;;;;;;5075258;28;20039;-82
2021/06/21 05:06:50;;;;;;;0.93;0.90;;;14.10;93.90;;;;;;5075351;28;20379;-82
2021/06/21 05:09:15;;;;;;;1.50;1.00;;;14.10;93.90;;;;;;5075015;28;20568;-82
2021/06/21 05:11:41;;;;;;;1.00;0.90;;;14.10;94.00;;;;;;5093479;28;20060;-83
2021/06/21 05:14:06;;;;;;;2.05;1.30;;;14.10;94.10;;;;;;5093670;28;20040;-81
2021/06/21 05:16:32;;;;;;;1.20;1.10;;;14.10;94.10;;;;;;5075175;28;20024;-82
2021/06/21 05:18:58;;;;;;;1.77;0.95;;;14.10;94.10;;;;;;5075226;28;20023;-83
2021/06/21 05:21:23;;;;;;;0.90;0.90;;;14.10;94.20;;;;;;5093598;28;20021;-86
2021/06/21 05:23:49;;;;;;;1.35;1.10;;;14.10;94.30;;;;;;5074779;28;20027;-82
2021/06/21 05:26:15;;;;;;;0.90;0.90;;;14.10;94.30;;;;;;5074934;28;20039;-83
2021/06/21 05:28:40;;;;;;;0.80;0.70;;;14.10;94.30;;;;;;5075169;28;20020;-82
2021/06/21 05:31:06;;;;;;;0.75;0.75;;;14.10;94.30;;;;;;5075324;28;20035;-82
2021/06/21 05:33:32;;;;;;;1.50;1.00;;;14.10;94.30;;;;;;5096843;28;20021;-81
2021/06/21 05:35:57;;;;;;;0.80;0.80;;;14.10;94.30;;;;;;5097221;28;20059;-83
2021/06/21 05:38:23;;;;;;;0.98;0.88;;;14.10;94.40;;;;;;5096865;28;20072;-86
2021/06/21 05:40:48;;;;;;;1.10;1.00;;;14.20;94.50;;;;;;5097340;28;20609;-83
2021/06/21 05:43:14;;;;;;;1.35;0.93;;;14.20;94.50;;;;;;5097933;28;20062;-84
2021/06/21 05:45:40;;;;;;;2.10;1.00;;;14.10;94.50;;;;;;5097336;28;20035;-81
2021/06/21 05:48:06;;;;;;;1.27;0.70;;;14.20;94.50;;;;;;5078909;28;20020;-90
2021/06/21 05:50:31;;;;;;;1.73;0.90;;;14.20;94.50;;;;;;5096901;28;20066;-81
2021/06/21 05:52:57;;;;;;;1.00;0.70;;;14.20;94.50;;;;;;5096739;28;20055;-82
2021/06/21 05:55:23;;;;;;;1.08;0.88;;;14.20;94.50;;;;;;5097190;28;20166;-83
2021/06/21 05:57:53;;;;;;;1.50;1.08;;;14.20;94.60;;;;;;5096856;28;20013;-82
2021/06/21 06:00:21;;;;;;;0.93;0.80;;;14.20;94.60;;;;;;5078668;28;20028;-81
2021/06/21 06:02:47;;;;;;;1.20;0.98;;;14.20;94.60;;;;;;5078490;28;20453;-80
2021/06/21 06:05:14;;;;;;;1.15;0.90;;;14.10;94.60;;;;;;5096706;28;20036;-82
2021/06/21 06:07:39;;;;;;;0.77;0.77;;;14.20;94.70;;;;;;5096266;28;20530;-80
2021/06/21 06:10:07;;;;;;;1.38;1.02;;;14.10;94.70;;;;;;5096555;28;20031;-80
2021/06/21 06:12:32;;;;;;;1.33;1.00;;;14.10;94.80;;;;;;5078419;28;20020;-80
2021/06/21 06:15:00;;;;;;;1.48;0.93;;;14.10;94.80;;;;;;5078637;28;20032;-93
2021/06/21 06:17:27;;;;;;;1.65;0.95;;;14.10;94.90;;;;;;5079835;28;20029;-92
2021/06/21 06:19:53;;;;;;;1.13;0.90;;;14.10;94.80;;;;;;5111125;28;20024;-93
2021/06/21 06:22:18;;;;;;;1.40;0.82;;;14.20;94.80;;;;;;5078925;28;20012;-83
2021/06/21 06:24:44;;;;;;;0.90;0.90;;;14.20;94.80;;;;;;5096606;28;20028;-86
2021/06/21 06:27:10;;;;;;;1.20;0.98;;;14.30;94.80;;;;;;5096572;28;20049;-75
2021/06/21 06:29:35;;;;;;;1.15;1.05;;;14.20;94.70;;;;;;5078588;28;20088;-85
2021/06/21 06:32:02;;;;;;;1.02;0.90;;;14.10;94.80;;;;;;5078985;28;20027;-84
2021/06/21 06:34:28;;;;;;;0.70;0.70;;;14.20;95.00;;;;;;5096250;28;20036;-84
2021/06/21 06:36:54;;;;;;;1.13;1.08;;;14.30;94.90;;;;;;5077580;28;20048;-85
2021/06/21 06:39:20;;;;;;;1.15;1.08;;;14.20;94.70;;;;;;5078075;28;20024;-83
2021/06/21 06:41:46;;;;;;;1.33;0.93;;;14.20;94.90;;;;;;5096121;28;20024;-82
2021/06/21 06:44:11;;;;;;;1.67;1.13;;;14.20;94.90;;;;;;5095493;28;20101;-83
2021/06/21 06:46:37;;;;;;;1.30;1.20;;;14.20;94.80;;;;;;5096360;28;20020;-82
2021/06/21 06:49:03;;;;;;;1.20;0.80;;;14.20;94.90;;;;;;5096114;28;20032;-84
2021/06/21 06:51:34;;;;;;;1.35;1.27;;;14.20;95.00;;;;;;5078042;28;20016;-85
2021/06/21 06:54:05;;;;;;;1.05;0.70;;;14.20;95.00;;;;;;5076585;28;20050;-88
2021/06/21 06:59:16;;;;;;;0.80;0.80;;;14.30;95.00;;;;;;5094337;28;20136;-87
2021/06/21 07:01:42;;;;;;;0.75;0.70;;;14.30;95.00;;;;;;5094080;28;20389;-87
2021/06/21 07:04:08;;;;;;;1.30;1.20;;;14.30;94.90;;;;;;5093853;28;20506;-84
2021/06/21 07:06:33;;;;;;;1.20;1.10;;;14.30;94.90;;;;;;5094055;28;20028;-87
2021/06/21 07:08:59;;;;;;;1.40;1.00;;;14.20;95.00;;;;;;5076574;28;20031;-89
2021/06/21 07:11:25;;;;;;;1.10;1.00;;;14.20;95.00;;;;;;5075475;28;20024;-89
2021/06/21 07:13:50;;;;;;;1.33;1.23;;;14.20;95.10;;;;;;5076847;28;20020;-88
2021/06/21 07:16:16;;;;;;;1.40;0.93;;;14.20;95.10;;;;;;5074761;28;20048;-88
2021/06/21 07:18:41;;;;;;;1.17;1.00;;;14.20;95.20;;;;;;5057716;28;20423;-88
2021/06/21 07:21:07;;;;;;;1.23;0.98;;;14.30;95.20;;;;;;5057789;28;20035;-83
2021/06/21 07:23:33;;;;;;;1.65;1.00;;;14.30;95.20;;;;;;5057418;28;20039;-83
2021/06/21 07:25:58;;;;;;;1.73;1.20;;;14.40;95.10;;;;;;5075119;28;20082;-83
2021/06/21 07:28:24;;;;;;;1.65;1.25;;;14.40;95.10;;;;;;5075072;28;20028;-83
2021/06/21 07:30:50;;;;;;;1.67;1.23;;;14.40;95.10;;;;;;5075456;28;20499;-84
2021/06/21 07:33:16;;;;;;;1.90;1.60;;;14.40;95.10;;;;;;5075039;28;20082;-85
2021/06/21 07:35:42;;;;;;;2.80;1.60;;;14.40;95.20;;;;;;5057814;28;20037;-86
2021/06/21 07:38:10;;;;;;;1.38;1.10;;;14.40;95.20;;;;;;5075279;28;20504;-78
2021/06/21 07:40:37;;;;;;;1.58;1.20;;;14.40;95.30;;;;;;5056525;28;20035;-76
2021/06/21 07:43:03;;;;;;;1.70;1.20;;;14.40;95.20;;;;;;5074307;28;20032;-77
2021/06/21 07:45:28;;;;;;;1.83;1.20;;;14.40;95.20;;;;;;5074502;28;20028;-79
2021/06/21 07:47:57;;;;;;;1.60;1.10;;;14.40;95.40;;;;;;5056119;28;20016;-77
2021/06/21 07:50:23;;;;;;;2.90;1.60;;;14.40;95.30;;;;;;5056268;28;20017;-77
2021/06/21 07:52:49;;;;;;;2.45;1.58;;;14.40;95.30;;;;;;5074373;28;20103;-77
2021/06/21 07:55:14;;;;;;;2.22;1.45;;;14.40;95.60;;;;;;5073051;28;20040;-77
2021/06/21 07:57:40;;;;;;;2.08;1.40;;;14.40;95.30;;;;;;5074293;28;20016;-79
2021/06/21 08:00:06;;;;;;;1.70;1.27;;;14.50;95.40;;;;;;5074261;28;20028;-77
2021/06/21 08:02:32;;;;;;;1.45;1.05;;;14.60;95.40;;;;;;5073571;28;20032;-78
2021/06/21 08:04:57;;;;;;;1.35;1.15;;;14.60;95.30;;;;;;5074189;28;20021;-78
2021/06/21 08:07:23;;;;;;;1.45;1.20;;;14.50;95.20;;;;;;5074212;28;20477;-78
2021/06/21 08:09:49;;;;;;;1.70;0.90;;;14.60;95.30;;;;;;5056102;28;20078;-78
2021/06/21 08:12:15;;;;;;;1.23;1.00;;;14.60;95.30;;;;;;5073992;28;20027;-78
2021/06/21 08:14:41;;;;;;;2.22;1.23;;;14.60;95.30;;;;;;5073642;28;20123;-78
2021/06/21 08:17:08;;;;;;;1.02;0.80;;;14.60;95.10;;;;;;5073626;28;20021;-79
2021/06/21 08:19:34;;;;;;;1.88;1.15;;;14.60;95.40;;;;;;5073746;28;20499;-78
2021/06/21 08:22:00;;;;;;;1.23;0.98;;;14.60;95.20;;;;;;5074013;28;20099;-79
2021/06/21 08:24:25;;;;;;;1.77;1.25;;;14.60;95.40;;;;;;5073698;28;20024;-78
2021/06/21 08:26:51;;;;;;;1.77;1.30;;;14.60;95.40;;;;;;5055678;28;20076;-79
2021/06/21 08:29:17;;;;;;;2.60;1.48;;;14.60;95.30;;;;;;5073554;28;20423;-79
2021/06/21 08:31:42;;;;;;;2.30;1.70;;;14.60;95.20;;;;;;5073175;28;20028;-78
2021/06/21 08:34:08;;;;;;;2.92;1.90;;;14.50;95.00;;;;;;5055627;28;20033;-78
2021/06/21 08:36:33;;;;;;;2.17;1.50;;;14.40;95.30;;;;;;5073267;28;20083;-78
2021/06/21 08:38:59;;;;;;;2.63;1.88;;;14.40;95.50;;;;;;5055543;28;20052;-78
2021/06/21 08:41:24;;;;;;;2.25;1.40;;;14.50;95.60;;;;;;5055710;28;20024;-77
2021/06/21 08:43:50;;;;;;;3.60;2.10;;;14.60;95.50;;;;;;5073604;28;20020;-77
2021/06/21 08:46:17;;;;;;;2.90;1.95;;;14.60;95.40;;;;;;5073092;28;20046;-78
2021/06/21 08:48:45;;;;;;;1.83;1.35;;;14.50;95.40;;;;;;5073227;28;20381;-79
2021/06/21 08:51:12;;;;;;;2.67;1.52;;;14.50;95.50;;;;;;5073495;28;20020;-78
2021/06/21 08:53:38;;;;;;;1.98;1.30;;;14.50;95.50;;;;;;5073421;28;20028;-80
2021/06/21 08:56:03;;;;;;;2.67;1.77;;;14.60;95.60;;;;;;5055339;28;20086;-79
2021/06/21 08:58:29;;;;;;;1.92;1.70;;;14.70;95.30;;;;;;5055908;28;20078;-89
2021/06/21 09:00:54;;;;;;;1.92;1.20;;;14.60;95.30;;;;;;5073981;28;20035;-87
2021/06/21 09:03:20;;;;;;;1.52;1.10;;;14.50;95.40;;;;;;5073731;28;20377;-85
2021/06/21 09:05:46;;;;;;;1.83;1.52;;;14.60;95.50;;;;;;5055969;28;20028;-86
2021/06/21 09:08:12;;;;;;;2.65;1.77;;;14.70;95.40;;;;;;5073817;28;20024;-85
2021/06/21 09:10:39;;;;;;;1.92;1.40;;;14.60;95.20;;;;;;5056143;28;20032;-84
2021/06/21 09:13:16;;;;;;;2.58;1.90;;;14.50;95.40;;;;;;5055806;28;20473;-88
2021/06/21 09:15:49;;;;;;;3.17;1.90;;;14.50;95.30;;;;;;5055891;28;20037;-87
2021/06/21 09:18:32;;;;;;;3.05;2.00;;;14.40;95.50;;;;;;5074191;28;20461;-85
2021/06/21 09:21:20;;;;;;;3.80;2.03;;;14.40;95.50;;;;;;5056016;28;20025;-88
2021/06/21 09:23:47;;;;;;;3.33;1.95;;;14.40;95.50;;;;;;5074120;28;20421;-85
2021/06/21 09:26:25;;;;;;;2.65;1.65;;;14.30;95.60;;;;;;5073766;28;20097;-85
2021/06/21 09:28:50;;;;;;;1.77;1.27;;;14.40;95.60;;;;;;5073635;28;20035;-89
2021/06/21 09:31:17;;;;;;;2.63;1.75;;;14.30;95.70;;;;;;5056059;28;20020;-88
2021/06/21 09:33:44;;;;;;;1.60;1.17;;;14.30;95.80;;;;;;5056388;28;20036;-89
2021/06/21 09:36:18;;;;;;;1.58;1.40;;;14.40;95.80;;;;;;5056007;28;20060;-87
2021/06/21 09:38:44;;;;;;;2.20;1.52;;;14.50;95.80;;;;;;5056292;28;20162;-88
2021/06/21 09:41:09;;;;;;;2.28;1.80;;;14.60;95.80;;;;;;5055986;28;20017;-86
2021/06/21 09:43:36;;;;;;;3.25;1.80;;;14.60;95.60;;;;;;5072974;28;20362;-89
2021/06/21 09:46:18;;;;;;;2.72;1.90;;;14.50;95.40;;;;;;5073454;28;20108;-87
2021/06/21 09:48:52;;;;;;;2.10;1.67;;;14.50;95.60;;;;;;5073968;28;20024;-89
2021/06/21 09:51:36;;;;;;;2.95;2.00;;;14.50;95.70;;;;;;5073906;28;20044;-86
2021/06/21 09:54:11;;;;;;;2.05;1.48;;;14.60;95.60;;;;;;5055439;28;20037;-87
2021/06/21 09:56:49;;;;;;;2.00;1.70;;;14.60;95.50;;;;;;5073470;28;20033;-89
2021/06/21 09:59:29;;;;;;;1.67;1.55;;;14.60;95.50;;;;;;5055633;28;20052;-89
2021/06/21 10:02:03;;;;;;;3.53;2.13;;;14.80;95.60;;;;;;5073638;28;20081;-85
2021/06/21 10:04:29;;;;;;;4.03;2.28;;;14.90;95.50;;;;;;5073743;28;20040;-88
2021/06/21 10:06:55;;;;;;;2.97;1.92;;;14.90;95.50;;;;;;5055687;28;20029;-87
2021/06/21 10:09:20;;;;;;;2.60;1.70;;;15.00;95.40;;;;;;5073548;28;20023;-87
2021/06/21 10:11:46;;;;;;;2.40;1.50;;;15.00;95.40;;;;;;5073702;28;20039;-87
2021/06/21 10:14:14;;;;;;;1.65;1.38;;;15.20;95.30;;;;;;5055379;28;20024;-85
2021/06/21 10:16:41;;;;;;;1.80;1.30;;;15.20;95.20;;;;;;5073213;28;20025;-89
2021/06/21 10:19:08;;;;;;;1.73;1.30;;;15.20;95.30;;;;;;5058633;28;20376;-88
2021/06/21 10:21:35;;;;;;;1.55;1.10;;;15.30;95.20;;;;;;5077254;28;20021;-86
2021/06/21 10:24:01;;;;;;;1.38;1.25;;;15.40;95.10;;;;;;5076695;28;20073;-84
2021/06/21 10:26:27;;;;;;;1.35;0.90;;;15.40;95.00;;;;;;5076550;28;20032;-84
2021/06/21 10:28:54;;;;;;;2.05;1.40;;;15.50;94.90;;;;;;5075886;28;20020;-83
2021/06/21 10:31:24;;;;;;;1.10;0.90;;;15.50;94.80;;;;;;5058864;28;20032;-86
2021/06/21 10:33:50;;;;;;;1.05;0.90;;;15.40;94.90;;;;;;5077052;28;20020;-88
2021/06/21 10:36:15;;;;;;;1.02;1.00;;;15.50;94.90;;;;;;5087140;28;20044;-82
2021/06/21 10:38:41;;;;;;;0.70;0.70;;;15.60;94.90;;;;;;5076605;28;20440;-85
2021/06/21 10:41:08;;;;;;;1.23;0.75;;;15.60;94.80;;;;;;5076455;28;20028;-88
2021/06/21 10:43:48;;;;;;;1.00;0.90;;;15.60;95.00;;;;;;5089172;28;20111;-84
2021/06/21 10:46:25;;;;;;;1.70;1.15;;;15.60;94.70;;;;;;5087142;28;20069;-85
2021/06/21 10:48:57;;;;;;;1.10;1.00;;;15.50;94.70;;;;;;5058229;28;20020;-85
2021/06/21 10:51:30;;;;;;;1.17;1.08;;;15.50;95.00;;;;;;5091781;28;20024;-84
2021/06/21 10:53:55;;;;;;;1.80;1.30;;;15.40;95.00;;;;;;5077908;28;20197;-82
2021/06/21 10:56:48;;;;;;;2.03;1.60;;;15.40;95.30;;;;;;5069609;28;20119;-80
2021/06/21 10:59:16;;;;;;;1.92;1.30;;;15.40;95.00;;;;;;5076163;28;20123;-82
2021/06/21 11:01:46;;;;;;;2.38;1.42;;;15.40;95.30;;;;;;5057155;28;20016;-82
2021/06/21 11:04:35;;;;;;;1.70;1.38;;;15.50;95.10;;;;;;5075683;28;20103;-86
2021/06/21 11:07:14;;;;;;;1.50;1.23;;;15.50;95.10;;;;;;5074387;28;20508;-83
2021/06/21 11:09:41;;;;;;;1.77;1.30;;;15.50;95.10;;;;;;5075822;28;20021;-84
2021/06/21 11:12:40;;;;;;;2.83;1.45;;;15.40;95.00;;;;;;5074480;28;20064;-84
2021/06/21 11:15:12;;;;;;;2.78;1.92;;;15.30;94.90;;;;;;5075559;28;20051;-85
2021/06/21 11:17:43;;;;;;;2.83;1.98;;;15.40;95.00;;;;;;5075818;28;20027;-84
2021/06/21 11:20:31;;;;;;;1.80;1.60;;;15.40;94.90;;;;;;5075604;28;20024;-85
2021/06/21 11:22:59;;;;;;;1.88;1.50;;;15.30;95.00;;;;;;5075583;28;20032;-85
2021/06/21 11:25:27;;;;;;;3.08;1.65;;;15.40;95.10;;;;;;5057093;28;20124;-84
2021/06/21 11:27:54;;;;;;;2.35;1.67;;;15.60;95.00;;;;;;5075311;28;20017;-78
2021/06/21 11:30:26;;;;;;;4.35;1.70;;;15.80;94.90;;;;;;5074936;28;20024;-83
2021/06/21 11:33:00;;;;;;;2.28;1.65;;;15.90;94.60;;;;;;5057200;28;20024;-84
2021/06/21 11:35:45;;;;;;;2.75;2.03;;;15.70;94.60;;;;;;5074960;28;20090;-81
2021/06/21 11:38:34;;;;;;;1.83;1.63;;;15.70;94.60;;;;;;5053524;28;20493;-83
2021/06/21 11:41:20;;;;;;;2.95;1.80;;;15.70;94.50;;;;;;5054508;28;20023;-82
2021/06/21 11:43:51;;;;;;;2.78;1.80;;;15.70;94.50;;;;;;5055353;28;20480;-84
2021/06/21 11:46:37;;;;;;;1.70;1.55;;;15.60;94.70;;;;;;5055164;28;20033;-84
2021/06/21 11:49:06;;;;;;;1.60;1.38;;;15.60;94.70;;;;;;5055045;28;20031;-82
2021/06/21 11:51:32;;;;;;;2.10;1.50;;;15.70;94.70;;;;;;5053698;28;20036;-84
2021/06/21 11:54:00;;;;;;;2.85;1.98;;;15.70;94.50;;;;;;5053385;28;20017;-85
2021/06/21 11:56:26;;;;;;;2.95;2.13;;;15.60;94.60;;;;;;5054752;28;20497;-83
2021/06/21 11:58:54;;;;;;;3.20;2.38;;;15.60;94.60;;;;;;5053782;28;20496;-84
2021/06/21 12:01:25;;;;;;;2.97;1.77;;;15.60;94.70;;;;;;5054839;28;20131;-83
2021/06/21 12:03:59;;;;;;;3.22;2.20;;;15.60;94.70;;;;;;5053299;28;20013;-84
2021/06/21 12:06:29;;;;;;;3.53;2.28;;;15.60;94.50;;;;;;5054768;28;20021;-83
2021/06/21 12:08:55;;;;;;;3.65;2.30;;;15.70;94.60;;;;;;5053786;28;20017;-81
2021/06/21 12:11:30;;;;;;;2.50;1.83;;;15.80;94.60;;;;;;5052916;28;20060;-83
2021/06/21 12:14:03;;;;;;;2.80;1.80;;;15.90;94.50;;;;;;5054265;28;20086;-83
2021/06/21 12:16:31;;;;;;;2.55;1.67;;;15.90;94.30;;;;;;5054439;28;20041;-83
2021/06/21 12:19:01;;;;;;;2.42;2.20;;;15.90;94.20;;;;;;5054322;28;20025;-82
2021/06/21 12:21:31;;;;;;;2.63;1.80;;;16.10;94.20;;;;;;5054512;28;20090;-84
2021/06/21 12:23:57;;;;;;;4.38;2.90;;;16.30;94.00;;;;;;5053433;28;20074;-79
2021/06/21 12:26:23;;;;;;;4.03;2.78;;;16.40;93.90;;;;;;5052826;28;20016;-84
2021/06/21 12:28:48;;;;;;;2.65;2.05;;;16.40;93.80;;;;;;5054414;28;20143;-79
2021/06/21 12:31:17;;;;;;;2.65;2.08;;;16.50;94.20;;;;;;5052708;28;20085;-80
2021/06/21 12:33:43;;;;;;;3.47;2.33;;;16.60;93.70;;;;;;5053702;28;20031;-83
2021/06/21 12:36:13;;;;;;;2.70;1.90;;;16.70;93.70;;;;;;5053714;28;20092;-84
2021/06/21 12:38:38;;;;;;;2.55;1.90;;;16.80;93.70;;;;;;5072129;28;20056;-82
2021/06/21 12:41:41;;;;;;;3.13;2.20;;;17.00;93.60;;;;;;5073458;28;20029;-79
2021/06/21 12:44:09;;;;;;;2.40;1.98;;;17.00;93.20;;;;;;5055670;28;20037;-83
2021/06/21 12:46:39;;;;;;;2.63;1.95;;;16.70;93.30;;;;;;5073535;28;20610;-81
2021/06/21 12:49:13;;;;;;;3.72;2.58;;;16.60;93.70;;;;;;5073402;28;20388;-79
2021/06/21 12:51:40;;;;;;;4.10;2.80;;;16.50;93.30;;;;;;5073359;28;20031;-80
2021/06/21 12:54:07;;;;;;;2.83;2.10;;;16.30;93.60;;;;;;5072903;28;20028;-81
2021/06/21 12:56:40;;;;;;;3.55;2.10;;;16.20;93.60;;;;;;5073128;28;20029;-80
2021/06/21 12:59:26;;;;;;;2.20;1.80;;;16.30;93.70;;;;;;5073386;28;20020;-79